Ashuelot, New Hampshire
Current Conditions -  °F | °C
As of 5:15 PM on Friday 31 Oct 2014 (Local Time) from KEEN Reporting Station
Clear Clear  
Wind Chill: 46°   Ceiling: Unl
Heat Index: 48°   Visibility: 10mi
Dew Point: 30°   Wind: 5mph
Humidity: 50%   Direction: 60°ENE
Pressure: 29.98"   Gusts: NA
Location:  42.78°N, 72.42°W
Report Text: KEEN 312115Z AUTO 06004KT 10SM CLR 09/M01 A2998 RMK AO1
Loading
Personal Weather Stations






























Interactive Weather Map
Tropical Storm Tracking
New forecast layout! Learn more

10-Day Weather Forecast

Advertisements
Track Severe Weather on mobile